Terminal Aerodrome Forecast
Issued by NWS Louisville, KY

Home | Current Version | Previous Version | Text Only | Print | Product List | Glossary On
Versions: 1 2 3 4 5 6 7 8 9 10 11 12 13 14 15 16 17
461
FTUS43 KLMK 031128
TAFSDF
TAF
KSDF 031128Z 0312/0418 30004KT P6SM BKN012
      TEMPO 0312/0314 5SM BR BKN008
     FM031600 32005KT P6SM BKN025
     FM031900 31006KT P6SM SCT025 BKN035
     FM040000 29005KT P6SM BKN070=

USA.gov is the U.S. government's official web portal to all federal, state and local government web resources and services.